createdAt,value
2023-05-10T00:00:05.814Z,2.47
2023-05-10T00:02:32.487Z,3.22
2023-05-10T00:04:59.207Z,2.70
2023-05-10T00:07:26.179Z,2.70
2023-05-10T00:09:52.575Z,2.78
2023-05-10T00:12:19.018Z,2.90
2023-05-10T00:14:46.055Z,2.28
2023-05-10T00:17:12.472Z,2.83
2023-05-10T00:19:38.950Z,2.72
2023-05-10T00:22:05.351Z,3.20
2023-05-10T00:24:31.775Z,2.50
2023-05-10T00:26:58.196Z,2.40
2023-05-10T00:29:25.056Z,2.60
2023-05-10T00:31:51.585Z,2.75
2023-05-10T00:34:19.352Z,3.03
2023-05-10T00:36:45.830Z,3.10
2023-05-10T00:39:12.292Z,2.95
2023-05-10T00:41:38.785Z,2.70
2023-05-10T00:44:05.306Z,2.70
2023-05-10T00:46:32.090Z,2.78
2023-05-10T00:48:58.752Z,3.00
2023-05-10T00:51:25.470Z,2.65
2023-05-10T00:53:52.234Z,2.75
2023-05-10T00:56:18.700Z,2.97
2023-05-10T00:58:45.084Z,2.65
2023-05-10T01:01:11.823Z,2.83
2023-05-10T01:03:38.361Z,3.00
2023-05-10T01:06:05.051Z,2.70
2023-05-10T01:08:31.510Z,2.70
2023-05-10T01:10:58.173Z,2.95
2023-05-10T01:13:31.550Z,2.72
2023-05-10T01:15:58.070Z,2.70
2023-05-10T01:18:24.906Z,3.17
2023-05-10T01:20:58.783Z,3.88
2023-05-10T01:23:37.505Z,3.28
2023-05-10T01:26:14.472Z,2.60
2023-05-10T01:28:44.046Z,2.60
2023-05-10T01:31:13.299Z,2.50
2023-05-10T01:33:47.853Z,3.03
2023-05-10T01:36:27.260Z,2.97
2023-05-10T01:38:59.934Z,3.05
2023-05-10T01:41:38.672Z,3.20
2023-05-10T01:44:19.779Z,2.85
2023-05-10T01:49:24.612Z,2.35
2023-05-10T01:51:55.807Z,2.67
2023-05-10T01:54:23.423Z,2.50
2023-05-10T01:56:53.613Z,2.90
2023-05-10T01:59:20.585Z,3.00
2023-05-10T02:01:48.536Z,2.80
2023-05-10T02:04:16.726Z,2.65
2023-05-10T02:06:44.536Z,2.50
2023-05-10T02:09:12.609Z,2.80
2023-05-10T02:11:40.868Z,3.20
2023-05-10T02:14:09.989Z,2.88
2023-05-10T02:16:37.117Z,2.40
2023-05-10T02:19:04.230Z,3.78
2023-05-10T02:21:31.793Z,3.58
2023-05-10T02:23:59.106Z,3.28
2023-05-10T02:26:26.539Z,2.72
2023-05-10T02:28:53.854Z,2.92
2023-05-10T02:31:20.707Z,2.65
2023-05-10T02:33:47.984Z,3.25
2023-05-10T02:36:14.877Z,3.22
2023-05-10T02:38:41.536Z,2.70
2023-05-10T02:41:09.327Z,2.72
2023-05-10T02:43:36.505Z,2.88
2023-05-10T02:46:03.350Z,2.92
2023-05-10T02:48:29.851Z,2.78
2023-05-10T02:50:57.183Z,3.22
2023-05-10T02:53:24.543Z,2.90
2023-05-10T02:55:52.820Z,3.35
2023-05-10T02:58:20.423Z,2.90
2023-05-10T03:00:47.477Z,3.10
2023-05-10T03:03:14.045Z,2.78
2023-05-10T03:05:40.449Z,2.72
2023-05-10T03:08:07.309Z,2.90
2023-05-10T03:10:34.880Z,4.00
2023-05-10T03:13:19.839Z,3.30
2023-05-10T03:15:49.685Z,3.00
2023-05-10T03:18:34.621Z,2.50
2023-05-10T03:21:03.970Z,3.42
2023-05-10T03:23:41.326Z,2.90
2023-05-10T03:26:09.060Z,3.05
2023-05-10T03:28:36.249Z,2.85
2023-05-10T03:31:03.850Z,2.90
2023-05-10T03:33:30.287Z,3.15
2023-05-10T03:35:56.688Z,2.90
2023-05-10T03:38:23.104Z,2.78
2023-05-10T03:40:49.534Z,3.30
2023-05-10T03:43:18.846Z,2.97
2023-05-10T03:45:45.340Z,3.47
2023-05-10T03:48:12.231Z,3.00
2023-05-10T03:50:38.634Z,2.42
2023-05-10T03:53:05.010Z,3.42
2023-05-10T03:55:35.476Z,3.20
2023-05-10T03:58:01.914Z,3.33
2023-05-10T04:00:28.313Z,2.80
2023-05-10T04:02:54.838Z,3.08
2023-05-10T04:05:21.304Z,3.30
2023-05-10T04:07:48.152Z,2.80
2023-05-10T04:10:14.782Z,2.97
2023-05-10T04:12:42.035Z,3.40
2023-05-10T04:15:08.983Z,2.63
2023-05-10T04:17:38.732Z,3.22
2023-05-10T04:20:05.633Z,3.10
2023-05-10T04:22:32.939Z,4.68
2023-05-10T04:24:59.342Z,3.45
2023-05-10T04:27:25.881Z,3.35
2023-05-10T04:29:52.365Z,3.13
2023-05-10T04:32:18.875Z,3.50
2023-05-10T04:34:47.704Z,2.88
2023-05-10T04:37:14.109Z,3.40
2023-05-10T04:39:42.289Z,2.85
2023-05-10T04:42:09.162Z,3.35
2023-05-10T04:44:35.702Z,2.97
2023-05-10T04:47:03.250Z,3.20
2023-05-10T04:49:30.567Z,3.78
2023-05-10T04:51:59.882Z,2.88
2023-05-10T04:54:26.414Z,3.40
2023-05-10T04:56:52.848Z,3.28
2023-05-10T04:59:19.272Z,3.00
2023-05-10T05:01:45.748Z,3.72
2023-05-10T05:04:12.433Z,3.33
2023-05-10T05:06:38.872Z,3.20
2023-05-10T05:09:05.321Z,3.65
2023-05-10T05:11:31.750Z,3.00
2023-05-10T05:14:00.061Z,2.80
2023-05-10T05:16:27.081Z,3.33
2023-05-10T05:18:53.468Z,2.88
2023-05-10T05:21:20.626Z,3.10
2023-05-10T05:23:47.137Z,3.20
2023-05-10T05:26:13.560Z,3.17
2023-05-10T05:28:39.952Z,3.03
2023-05-10T05:31:06.861Z,3.35
2023-05-10T05:33:33.359Z,3.10
2023-05-10T05:36:03.228Z,3.00
2023-05-10T05:38:29.650Z,3.33
2023-05-10T05:40:56.163Z,2.75
2023-05-10T05:43:22.615Z,2.80
2023-05-10T05:45:49.101Z,3.20
2023-05-10T05:48:15.504Z,2.30
2023-05-10T05:50:41.950Z,2.67
2023-05-10T05:53:09.028Z,2.83
2023-05-10T05:55:35.549Z,3.03
2023-05-10T05:58:02.161Z,3.15
2023-05-10T06:00:28.630Z,3.63
2023-05-10T06:02:55.078Z,3.72
2023-05-10T06:05:21.988Z,3.20
2023-05-10T06:07:48.373Z,3.20
2023-05-10T06:10:14.860Z,3.05
2023-05-10T06:12:41.279Z,2.70
2023-05-10T06:15:08.048Z,3.00
2023-05-10T06:17:34.631Z,2.88
2023-05-10T06:20:01.085Z,3.05
2023-05-10T06:22:27.600Z,3.50
2023-05-10T06:24:53.998Z,3.00
2023-05-10T06:27:20.468Z,2.70
2023-05-10T06:29:46.964Z,2.95
2023-05-10T06:32:13.375Z,2.78
2023-05-10T06:34:39.829Z,2.80
2023-05-10T06:37:06.240Z,2.83
2023-05-10T06:39:32.683Z,2.80
2023-05-10T06:41:59.113Z,2.92
2023-05-10T06:44:25.505Z,2.95
2023-05-10T06:46:53.694Z,2.83
2023-05-10T06:49:22.524Z,3.08
2023-05-10T06:51:49.391Z,2.88
2023-05-10T06:54:15.863Z,2.65
2023-05-10T06:56:42.304Z,3.17
2023-05-10T06:59:08.849Z,2.67
2023-05-10T07:01:35.351Z,3.03
2023-05-10T07:04:01.820Z,2.85
2023-05-10T07:06:33.492Z,3.00
2023-05-10T07:09:01.333Z,3.10
2023-05-10T07:11:27.923Z,2.70
2023-05-10T07:13:54.410Z,3.20
2023-05-10T07:16:21.044Z,2.92
2023-05-10T07:18:47.465Z,2.45
2023-05-10T07:21:13.984Z,2.85
2023-05-10T07:23:41.349Z,2.90
2023-05-10T07:26:10.700Z,3.40
2023-05-10T07:28:38.537Z,2.78
2023-05-10T07:31:04.971Z,2.75
2023-05-10T07:33:31.400Z,3.15
2023-05-10T07:35:57.825Z,2.90
2023-05-10T07:38:24.399Z,3.90
2023-05-10T07:40:50.829Z,2.60
2023-05-10T07:43:17.232Z,3.45
2023-05-10T07:45:44.286Z,3.33
2023-05-10T07:48:11.185Z,2.85
2023-05-10T07:50:37.628Z,2.58
2023-05-10T07:53:04.091Z,2.80
2023-05-10T07:55:30.894Z,3.03
2023-05-10T07:57:57.782Z,2.90
2023-05-10T08:00:24.252Z,3.25
2023-05-10T08:02:50.865Z,2.80
2023-05-10T08:05:17.668Z,2.50
2023-05-10T08:07:44.258Z,3.00
2023-05-10T08:10:14.950Z,2.83
2023-05-10T08:12:41.377Z,2.88
2023-05-10T08:15:08.134Z,3.00
2023-05-10T08:17:34.631Z,2.90
2023-05-10T08:20:01.167Z,2.35
2023-05-10T08:22:27.616Z,3.35
2023-05-10T08:24:53.991Z,2.90
2023-05-10T08:27:20.418Z,3.58
2023-05-10T08:29:50.394Z,2.85
2023-05-10T08:32:17.141Z,2.58
2023-05-10T08:34:43.768Z,2.30
2023-05-10T08:37:11.497Z,2.40
2023-05-10T08:39:38.186Z,2.22
2023-05-10T08:42:05.430Z,2.95
2023-05-10T08:44:33.213Z,2.85
2023-05-10T08:47:00.467Z,2.30
2023-05-10T08:49:28.435Z,3.10
2023-05-10T08:51:56.017Z,2.88
2023-05-10T08:54:22.908Z,2.83
2023-05-10T08:56:49.967Z,3.10
2023-05-10T08:59:16.964Z,2.55
2023-05-10T09:01:45.033Z,2.45
2023-05-10T09:04:11.649Z,2.40
2023-05-10T09:06:38.420Z,2.85
2023-05-10T09:09:04.962Z,2.88
2023-05-10T09:11:32.527Z,2.60
2023-05-10T09:13:58.917Z,3.15
2023-05-10T09:16:25.423Z,2.65
2023-05-10T09:18:52.134Z,2.72
2023-05-10T09:21:20.434Z,2.30
2023-05-10T09:23:48.622Z,2.40
2023-05-10T09:26:15.363Z,2.15
2023-05-10T09:29:10.836Z,2.00
2023-05-10T09:31:48.009Z,2.78
2023-05-10T09:34:19.110Z,2.22
2023-05-10T09:36:54.725Z,1.73
2023-05-10T09:39:21.764Z,2.33
2023-05-10T09:41:48.287Z,2.08
2023-05-10T09:44:18.758Z,2.65
2023-05-10T09:46:49.701Z,2.10
2023-05-10T09:51:42.565Z,2.60
2023-05-10T09:54:13.842Z,2.03
2023-05-10T09:56:41.604Z,2.63
2023-05-10T09:59:09.067Z,2.65
2023-05-10T10:01:36.223Z,2.25
2023-05-10T10:04:07.134Z,2.20
2023-05-10T10:08:59.855Z,2.53
2023-05-10T10:11:26.382Z,2.60
2023-05-10T10:13:52.874Z,2.58
2023-05-10T10:16:19.410Z,2.42
2023-05-10T10:22:21.278Z,2.85
2023-05-10T10:24:47.728Z,2.63
2023-05-10T10:27:37.180Z,2.63
2023-05-10T10:30:06.103Z,2.33
2023-05-10T10:32:35.204Z,2.53
2023-05-10T10:35:01.695Z,1.90
2023-05-10T10:37:42.478Z,1.95
2023-05-10T10:40:29.194Z,2.67
2023-05-10T10:42:56.508Z,2.25
2023-05-10T10:45:23.669Z,2.25
2023-05-10T10:47:50.969Z,2.40
2023-05-10T10:50:17.505Z,2.30
2023-05-10T10:52:46.958Z,2.20
2023-05-10T10:55:13.866Z,2.22
2023-05-10T10:57:50.729Z,2.15
2023-05-10T11:00:23.388Z,3.17
2023-05-10T11:02:54.571Z,2.13
2023-05-10T11:05:43.522Z,2.00
2023-05-10T11:08:19.148Z,1.98
2023-05-10T11:10:53.107Z,1.80
2023-05-10T11:13:27.952Z,2.15
2023-05-10T11:15:54.474Z,2.30
2023-05-10T11:18:22.056Z,2.60
2023-05-10T11:20:52.343Z,2.20
2023-05-10T11:23:19.143Z,2.00
2023-05-10T11:25:46.592Z,2.05
2023-05-10T11:28:13.591Z,2.38
2023-05-10T11:30:41.081Z,2.35
2023-05-10T11:33:08.613Z,2.17
2023-05-10T11:35:41.759Z,1.83
2023-05-10T11:38:10.373Z,1.95
2023-05-10T11:40:37.503Z,2.05
2023-05-10T11:43:04.606Z,2.00
2023-05-10T11:45:34.319Z,2.10
2023-05-10T11:48:01.201Z,2.23
2023-05-10T11:50:28.128Z,1.90
2023-05-10T11:52:58.028Z,1.95
2023-05-10T11:55:27.341Z,2.15
2023-05-10T11:57:54.760Z,1.83
2023-05-10T12:00:21.421Z,1.98
2023-05-10T12:02:48.143Z,2.33
2023-05-10T12:05:14.865Z,2.17
2023-05-10T12:07:41.550Z,2.20
2023-05-10T12:10:16.078Z,2.15
2023-05-10T12:12:43.934Z,1.75
2023-05-10T12:15:23.619Z,1.65
2023-05-10T12:17:50.671Z,2.50
2023-05-10T12:20:20.268Z,2.25
2023-05-10T12:22:47.556Z,2.72
2023-05-10T12:25:14.107Z,2.22
2023-05-10T12:27:40.667Z,2.40
2023-05-10T12:30:08.491Z,2.10
2023-05-10T12:32:38.865Z,2.03
2023-05-10T12:35:05.387Z,2.55
2023-05-10T12:37:31.857Z,1.90
2023-05-10T12:39:58.267Z,2.05
2023-05-10T12:42:26.100Z,2.15
2023-05-10T12:44:59.857Z,1.70
2023-05-10T12:47:26.414Z,1.85
2023-05-10T12:49:52.880Z,2.20
2023-05-10T12:52:19.318Z,2.00
2023-05-10T12:54:45.823Z,2.13
2023-05-10T12:57:12.431Z,1.77
2023-05-10T12:59:38.888Z,1.92
2023-05-10T13:02:05.424Z,1.80
2023-05-10T13:04:31.890Z,2.00
2023-05-10T13:07:00.071Z,1.77
2023-05-10T13:09:30.717Z,1.98
2023-05-10T13:11:57.181Z,2.28
2023-05-10T13:14:23.787Z,2.10
2023-05-10T13:16:50.373Z,2.10
2023-05-10T13:19:17.316Z,1.95
2023-05-10T13:21:47.547Z,1.95
2023-05-10T13:24:17.945Z,1.88
2023-05-10T13:26:44.490Z,1.83
2023-05-10T13:29:10.961Z,2.13
2023-05-10T13:31:37.466Z,2.03
2023-05-10T13:34:04.592Z,2.20
2023-05-10T13:36:31.419Z,1.90
2023-05-10T13:38:59.952Z,2.03
2023-05-10T13:41:26.396Z,2.17
2023-05-10T13:43:52.901Z,2.65
2023-05-10T13:46:19.745Z,2.00
2023-05-10T13:48:46.187Z,2.00
2023-05-10T13:51:12.613Z,2.35
2023-05-10T13:53:39.252Z,1.90
2023-05-10T13:56:05.819Z,2.00
2023-05-10T13:58:32.260Z,2.67
2023-05-10T14:00:58.962Z,2.10
2023-05-10T14:03:25.555Z,2.00
2023-05-10T14:05:52.198Z,2.17
2023-05-10T14:08:18.712Z,2.30
2023-05-10T14:10:45.103Z,1.80
2023-05-10T14:13:11.622Z,1.95
2023-05-10T14:15:38.060Z,2.17
2023-05-10T14:18:04.641Z,1.92
2023-05-10T14:20:33.901Z,2.20
2023-05-10T14:23:00.777Z,1.63
2023-05-10T14:25:27.222Z,2.30
2023-05-10T14:27:55.665Z,1.88
2023-05-10T14:30:22.244Z,2.00
2023-05-10T14:32:48.730Z,1.90
2023-05-10T14:35:17.686Z,2.13
2023-05-10T14:37:48.958Z,2.03
2023-05-10T14:40:16.175Z,1.80
2023-05-10T14:42:43.348Z,1.70
2023-05-10T14:45:10.718Z,2.08
2023-05-10T14:47:37.205Z,1.73
2023-05-10T14:50:03.971Z,2.00
2023-05-10T14:52:31.767Z,2.15
2023-05-10T14:55:01.333Z,1.80
2023-05-10T14:57:30.499Z,1.73
2023-05-10T14:59:57.593Z,1.77
2023-05-10T15:02:24.487Z,1.83
2023-05-10T15:04:51.833Z,1.60
2023-05-10T15:07:19.339Z,2.00
2023-05-10T15:09:46.145Z,2.28
2023-05-10T15:12:12.591Z,1.83
2023-05-10T15:14:39.072Z,2.72
2023-05-10T15:17:07.259Z,1.63
2023-05-10T15:19:34.302Z,2.00
2023-05-10T15:22:00.873Z,1.77
2023-05-10T15:24:27.304Z,1.90
2023-05-10T15:26:53.960Z,1.70
2023-05-10T15:29:23.657Z,1.50
2023-05-10T15:31:50.863Z,1.70
2023-05-10T15:34:18.354Z,1.45
2023-05-10T15:36:45.254Z,1.75
2023-05-10T15:39:11.980Z,1.70
2023-05-10T15:41:38.399Z,1.63
2023-05-10T15:44:04.867Z,1.55
2023-05-10T15:46:34.700Z,1.90
2023-05-10T15:49:01.138Z,1.65
2023-05-10T15:51:27.538Z,1.52
2023-05-10T15:54:05.725Z,1.52
2023-05-10T15:56:36.672Z,1.90
2023-05-10T15:59:03.759Z,1.50
2023-05-10T16:01:31.270Z,1.75
2023-05-10T16:03:57.829Z,1.50
2023-05-10T16:06:24.211Z,1.58
2023-05-10T16:08:51.380Z,1.70
2023-05-10T16:11:18.401Z,1.60
2023-05-10T16:13:47.097Z,1.48
2023-05-10T16:16:13.603Z,1.30
2023-05-10T16:18:40.132Z,1.60
2023-05-10T16:21:06.766Z,1.58
2023-05-10T16:23:33.217Z,1.60
2023-05-10T16:25:59.961Z,1.83
2023-05-10T16:28:26.401Z,1.40
2023-05-10T16:30:53.016Z,1.95
2023-05-10T16:33:19.556Z,1.73
2023-05-10T16:35:46.322Z,1.90
2023-05-10T16:38:12.760Z,1.50
2023-05-10T16:40:39.406Z,1.83
2023-05-10T16:43:05.792Z,1.70
2023-05-10T16:45:32.672Z,1.77
2023-05-10T16:47:59.212Z,1.80
2023-05-10T16:50:25.659Z,1.77
2023-05-10T16:52:52.059Z,1.70
2023-05-10T16:55:21.098Z,2.17
2023-05-10T16:57:47.633Z,1.48
2023-05-10T17:00:14.407Z,1.90
2023-05-10T17:02:40.959Z,2.10
2023-05-10T17:05:08.262Z,1.73
2023-05-10T17:07:34.770Z,1.88
2023-05-10T17:10:01.338Z,1.90
2023-05-10T17:12:27.782Z,2.38
2023-05-10T17:14:54.310Z,1.90
2023-05-10T17:17:20.736Z,2.20
2023-05-10T17:19:47.242Z,2.15
2023-05-10T17:22:14.328Z,2.10
2023-05-10T17:24:40.855Z,2.13
2023-05-10T17:27:07.290Z,1.83
2023-05-10T17:29:33.871Z,2.63
2023-05-10T17:32:00.438Z,2.65
2023-05-10T17:34:27.145Z,2.20
2023-05-10T17:36:57.457Z,2.20
2023-05-10T17:39:23.933Z,2.08
2023-05-10T17:41:50.386Z,2.00
2023-05-10T17:44:16.778Z,2.38
2023-05-10T17:46:43.486Z,2.40
2023-05-10T17:49:09.985Z,2.80
2023-05-10T17:51:36.436Z,2.40
2023-05-10T17:54:04.927Z,2.40
2023-05-10T17:56:31.465Z,2.20
2023-05-10T17:58:57.871Z,1.92
2023-05-10T18:01:24.398Z,2.25
2023-05-10T18:03:51.848Z,2.25
2023-05-10T18:06:18.359Z,2.30
2023-05-10T18:08:44.984Z,2.00
2023-05-10T18:11:11.368Z,2.10
2023-05-10T18:13:38.250Z,2.30
2023-05-10T18:16:05.991Z,2.17
2023-05-10T18:18:32.517Z,2.20
2023-05-10T18:20:59.207Z,2.10
2023-05-10T18:23:26.385Z,2.53
2023-05-10T18:25:52.948Z,3.45
2023-05-10T18:28:19.414Z,2.28
2023-05-10T18:30:46.042Z,2.42
2023-05-10T18:33:12.612Z,2.50
2023-05-10T18:35:40.285Z,2.08
2023-05-10T18:38:07.926Z,2.53
2023-05-10T18:40:34.315Z,2.40
2023-05-10T18:43:00.763Z,2.45
2023-05-10T18:45:27.227Z,2.60
2023-05-10T18:47:53.677Z,2.42
2023-05-10T18:50:20.460Z,2.33
2023-05-10T18:52:46.975Z,2.25
2023-05-10T18:55:13.575Z,2.83
2023-05-10T18:57:43.039Z,2.95
2023-05-10T19:00:10.434Z,2.53
2023-05-10T19:02:40.050Z,3.15
2023-05-10T19:05:06.914Z,2.15
2023-05-10T19:07:33.524Z,2.40
2023-05-10T19:10:00.013Z,2.13
2023-05-10T19:12:26.768Z,2.80
2023-05-10T19:14:53.155Z,2.38
2023-05-10T19:17:19.643Z,2.40
2023-05-10T19:19:46.242Z,2.38
2023-05-10T19:22:13.458Z,2.90
2023-05-10T19:24:39.934Z,2.53
2023-05-10T19:27:06.322Z,2.25
2023-05-10T19:29:32.929Z,2.28
2023-05-10T19:32:00.512Z,2.35
2023-05-10T19:34:26.984Z,2.47
2023-05-10T19:36:54.477Z,2.40
2023-05-10T19:39:21.153Z,2.70
2023-05-10T19:41:49.323Z,2.45
2023-05-10T19:44:15.880Z,2.47
2023-05-10T19:46:42.403Z,2.35
2023-05-10T19:49:08.867Z,2.70
2023-05-10T19:51:37.322Z,2.60
2023-05-10T19:54:03.823Z,2.45
2023-05-10T19:56:30.436Z,2.40
2023-05-10T19:58:56.888Z,2.55
2023-05-10T20:01:23.394Z,2.13
2023-05-10T20:03:49.953Z,2.25
2023-05-10T20:06:16.417Z,2.00
2023-05-10T20:08:42.879Z,2.55
2023-05-10T20:11:09.286Z,2.40
2023-05-10T20:13:35.800Z,2.75
2023-05-10T20:16:02.576Z,2.60
2023-05-10T20:18:29.150Z,2.17
2023-05-10T20:20:56.184Z,2.65
2023-05-10T20:23:22.799Z,2.35
2023-05-10T20:25:49.516Z,2.33
2023-05-10T20:28:16.025Z,2.05
2023-05-10T20:30:42.548Z,2.10
2023-05-10T20:33:12.071Z,2.08
2023-05-10T20:35:38.488Z,2.25
2023-05-10T20:38:04.951Z,2.10
2023-05-10T20:40:31.818Z,2.70
2023-05-10T20:42:58.466Z,2.50
2023-05-10T20:45:24.924Z,1.80
2023-05-10T20:47:51.403Z,2.30
2023-05-10T20:50:18.110Z,2.67
2023-05-10T20:52:44.751Z,2.05
2023-05-10T20:55:11.197Z,2.55
2023-05-10T20:57:37.626Z,2.22
2023-05-10T21:00:05.600Z,2.15
2023-05-10T21:02:32.295Z,2.40
2023-05-10T21:04:59.774Z,2.35
2023-05-10T21:07:26.269Z,2.42
2023-05-10T21:09:52.764Z,2.55
2023-05-10T21:12:19.190Z,2.60
2023-05-10T21:14:47.822Z,2.38
2023-05-10T21:17:14.643Z,2.83
2023-05-10T21:19:41.098Z,2.47
2023-05-10T21:22:07.808Z,2.97
2023-05-10T21:24:35.059Z,3.10
2023-05-10T21:27:01.579Z,2.53
2023-05-10T21:29:27.970Z,2.20
2023-05-10T21:31:57.429Z,2.35
2023-05-10T21:34:23.934Z,2.40
2023-05-10T21:36:50.331Z,2.50
2023-05-10T21:39:16.763Z,2.38
2023-05-10T21:41:43.194Z,2.40
2023-05-10T21:44:09.639Z,2.38
2023-05-10T21:46:36.011Z,2.28
2023-05-10T21:49:02.808Z,2.35
2023-05-10T21:51:29.347Z,2.25
2023-05-10T21:53:55.786Z,2.83
2023-05-10T21:56:22.541Z,2.45
2023-05-10T21:58:48.936Z,2.30
2023-05-10T22:01:17.106Z,2.45
2023-05-10T22:03:44.104Z,2.60
2023-05-10T22:06:10.702Z,2.47
2023-05-10T22:08:37.287Z,2.90
2023-05-10T22:11:03.808Z,2.53
2023-05-10T22:13:30.560Z,2.13
2023-05-10T22:15:56.982Z,3.20
2023-05-10T22:18:23.525Z,2.30
2023-05-10T22:20:50.013Z,2.60
2023-05-10T22:23:16.429Z,2.42
2023-05-10T22:25:42.966Z,2.65
2023-05-10T22:28:09.448Z,2.28
2023-05-10T22:30:35.981Z,2.50
2023-05-10T22:33:02.824Z,2.33
2023-05-10T22:35:29.427Z,2.88
2023-05-10T22:37:55.872Z,2.55
2023-05-10T22:40:22.302Z,2.40
2023-05-10T22:42:48.881Z,2.65
2023-05-10T22:45:15.386Z,2.42
2023-05-10T22:47:41.864Z,2.20
2023-05-10T22:50:08.877Z,2.50
2023-05-10T22:52:35.344Z,2.70
2023-05-10T22:55:05.886Z,2.55
2023-05-10T22:57:32.438Z,2.92
2023-05-10T22:59:58.895Z,2.40
2023-05-10T23:02:25.535Z,2.78
2023-05-10T23:04:52.111Z,2.13
2023-05-10T23:07:18.600Z,2.15
2023-05-10T23:09:45.974Z,2.33
2023-05-10T23:12:13.808Z,2.75
2023-05-10T23:14:41.515Z,2.20
2023-05-10T23:17:08.315Z,2.53
2023-05-10T23:19:34.771Z,2.42
2023-05-10T23:22:01.217Z,2.22
2023-05-10T23:24:27.629Z,3.22
2023-05-10T23:26:54.066Z,3.08
2023-05-10T23:29:20.554Z,2.40
2023-05-10T23:31:51.089Z,2.33
2023-05-10T23:34:17.616Z,2.40
2023-05-10T23:36:44.023Z,2.58
2023-05-10T23:39:10.412Z,2.20
2023-05-10T23:41:36.833Z,3.70
2023-05-10T23:44:03.366Z,3.00
2023-05-10T23:46:29.842Z,3.53
2023-05-10T23:48:56.251Z,2.30
2023-05-10T23:51:22.693Z,2.88
2023-05-10T23:53:49.087Z,2.22
2023-05-10T23:56:15.523Z,2.25
2023-05-10T23:58:42.617Z,2.65
